createdAt,value
2019-03-02T00:01:55.139Z,9.43
2019-03-02T00:04:25.230Z,10.45
2019-03-02T00:06:54.981Z,10.30
2019-03-02T00:09:24.738Z,9.85
2019-03-02T00:11:56.444Z,10.78
2019-03-02T00:14:25.817Z,10.32
2019-03-02T00:16:55.762Z,10.13
2019-03-02T00:19:25.685Z,9.50
2019-03-02T00:21:55.774Z,8.13
2019-03-02T00:24:28.956Z,9.98
2019-03-02T00:26:58.898Z,10.03
2019-03-02T00:29:28.917Z,10.08
2019-03-02T00:31:59.186Z,9.70
2019-03-02T00:34:32.047Z,9.83
2019-03-02T00:37:02.168Z,10.43
2019-03-02T00:39:32.037Z,9.70
2019-03-02T00:42:01.994Z,9.55
2019-03-02T00:44:31.765Z,9.43
2019-03-02T00:47:01.579Z,9.63
2019-03-02T00:49:31.820Z,9.70
2019-03-02T00:52:01.461Z,10.08
2019-03-02T00:54:31.278Z,10.10
2019-03-02T00:57:01.439Z,9.40
2019-03-02T00:59:30.738Z,8.83
2019-03-02T01:02:04.024Z,10.03
2019-03-02T01:04:32.343Z,10.93
2019-03-02T01:07:02.423Z,10.63
2019-03-02T01:09:32.165Z,9.20
2019-03-02T01:12:01.885Z,9.23
2019-03-02T01:14:32.903Z,9.85
2019-03-02T01:17:02.970Z,9.33
2019-03-02T01:19:32.811Z,9.15
2019-03-02T01:22:02.664Z,11.22
2019-03-02T01:24:35.581Z,10.00
2019-03-02T01:27:04.697Z,9.25
2019-03-02T01:29:35.202Z,8.10
2019-03-02T01:32:05.227Z,9.23
2019-03-02T01:34:35.003Z,9.63
2019-03-02T01:37:08.028Z,8.23
2019-03-02T01:39:36.678Z,9.28
2019-03-02T01:42:06.623Z,9.80
2019-03-02T01:44:36.383Z,8.75
2019-03-02T01:47:06.143Z,7.92
2019-03-02T01:49:36.651Z,8.80
2019-03-02T01:52:06.490Z,8.75
2019-03-02T01:54:36.383Z,8.18
2019-03-02T01:57:06.138Z,7.25
2019-03-02T01:59:38.776Z,8.28
2019-03-02T02:02:07.456Z,8.43
2019-03-02T02:04:37.824Z,7.40
2019-03-02T02:07:14.442Z,7.53
2019-03-02T02:09:44.811Z,7.75
2019-03-02T02:12:29.683Z,8.70
2019-03-02T02:15:05.833Z,7.90
2019-03-02T02:17:36.022Z,8.28
2019-03-02T02:20:07.171Z,7.35
2019-03-02T02:22:37.982Z,6.55
2019-03-02T02:25:21.235Z,7.28
2019-03-02T02:27:54.825Z,7.50
2019-03-02T02:30:26.840Z,7.72
2019-03-02T02:33:04.091Z,7.60
2019-03-02T02:35:41.440Z,7.17
2019-03-02T02:38:16.305Z,7.37
2019-03-02T02:40:44.488Z,8.20
2019-03-02T02:43:20.538Z,7.40
2019-03-02T02:45:49.105Z,7.80
2019-03-02T02:48:19.735Z,6.80
2019-03-02T02:51:10.127Z,7.45
2019-03-02T02:53:40.346Z,7.67
2019-03-02T02:56:09.139Z,7.62
2019-03-02T02:58:39.417Z,8.85
2019-03-02T03:01:09.066Z,8.85
2019-03-02T03:03:38.979Z,9.20
2019-03-02T03:06:08.792Z,9.73
2019-03-02T03:08:45.978Z,10.60
2019-03-02T03:11:16.816Z,9.28
2019-03-02T03:13:46.828Z,10.08
2019-03-02T03:16:17.935Z,10.40
2019-03-02T03:18:52.453Z,11.15
2019-03-02T03:21:27.272Z,10.98
2019-03-02T03:24:10.999Z,10.18
2019-03-02T03:26:40.945Z,12.20
2019-03-02T03:29:11.134Z,11.53
2019-03-02T03:31:41.421Z,11.45
2019-03-02T03:34:11.226Z,11.22
2019-03-02T03:36:43.250Z,12.28
2019-03-02T03:39:13.788Z,12.58
2019-03-02T03:41:44.987Z,14.50
2019-03-02T03:44:17.109Z,14.87
2019-03-02T03:46:50.539Z,13.60
2019-03-02T03:49:20.296Z,13.60
2019-03-02T03:51:56.189Z,13.68
2019-03-02T03:54:28.806Z,13.25
2019-03-02T03:57:02.076Z,13.10
2019-03-02T03:59:32.452Z,13.58
2019-03-02T04:02:26.078Z,14.33
2019-03-02T04:05:06.920Z,13.72
2019-03-02T04:07:31.373Z,14.25
2019-03-02T04:10:02.275Z,14.53
2019-03-02T04:12:31.945Z,14.78
2019-03-02T04:15:03.262Z,15.30
2019-03-02T04:17:39.109Z,14.35
2019-03-02T04:20:16.100Z,14.68
2019-03-02T04:22:49.353Z,15.53
2019-03-02T04:25:19.560Z,14.58
2019-03-02T04:27:54.426Z,14.38
2019-03-02T04:30:21.139Z,14.43
2019-03-02T04:33:05.907Z,14.47
2019-03-02T04:35:36.762Z,15.58
2019-03-02T04:38:16.173Z,15.15
2019-03-02T04:40:46.758Z,15.03
2019-03-02T04:46:15.356Z,13.95
2019-03-02T04:48:41.945Z,15.25
2019-03-02T04:51:22.032Z,15.53
2019-03-02T04:53:58.099Z,14.35
2019-03-02T05:02:56.654Z,16.60
2019-03-02T05:05:36.354Z,14.58
2019-03-02T05:08:27.253Z,16.10
2019-03-02T05:11:00.701Z,14.30
2019-03-02T05:13:30.414Z,15.68
2019-03-02T05:16:15.616Z,15.83
2019-03-02T05:19:13.810Z,14.23
2019-03-02T05:21:44.617Z,15.55
2019-03-02T05:24:15.036Z,14.93
2019-03-02T05:26:56.705Z,13.90
2019-03-02T05:29:30.920Z,14.43
2019-03-02T05:32:04.778Z,14.53
2019-03-02T05:34:39.947Z,14.93
2019-03-02T05:37:12.558Z,15.75
2019-03-02T05:40:00.422Z,14.80
2019-03-02T05:42:33.307Z,14.70
2019-03-02T05:45:05.330Z,14.98
2019-03-02T05:47:35.390Z,14.90
2019-03-02T05:50:06.158Z,14.43
2019-03-02T05:52:38.780Z,15.40
2019-03-02T05:55:10.095Z,15.28
2019-03-02T05:57:40.544Z,16.62
2019-03-02T06:00:13.447Z,16.67
2019-03-02T06:02:43.572Z,16.25
2019-03-02T06:05:20.689Z,16.30
2019-03-02T06:07:57.566Z,17.90
2019-03-02T06:10:27.685Z,19.45
2019-03-02T06:13:00.977Z,19.05
2019-03-02T06:15:33.212Z,19.70
2019-03-02T06:18:07.640Z,22.13
2019-03-02T06:20:37.687Z,24.27
2019-03-02T06:29:10.816Z,25.27
2019-03-02T06:31:40.215Z,24.87
2019-03-02T06:34:09.913Z,24.98
2019-03-02T06:36:40.891Z,24.45
2019-03-02T06:39:11.417Z,30.92
2019-03-02T06:41:40.840Z,29.32
2019-03-02T06:44:10.637Z,30.72
2019-03-02T06:46:40.453Z,30.65
2019-03-02T06:49:10.099Z,31.75
2019-03-02T06:51:39.855Z,33.00
2019-03-02T06:54:12.869Z,33.98
2019-03-02T06:56:40.456Z,36.20
2019-03-02T06:59:10.333Z,35.68
2019-03-02T07:01:40.048Z,36.00
2019-03-02T07:04:10.849Z,36.50
2019-03-02T07:06:43.518Z,35.78
2019-03-02T07:09:12.135Z,34.00
2019-03-02T07:11:42.361Z,35.58
2019-03-02T07:14:12.135Z,35.17
2019-03-02T07:16:41.953Z,34.25
2019-03-02T07:19:28.462Z,33.65
2019-03-02T07:21:58.224Z,36.03
2019-03-02T07:24:29.477Z,35.85
2019-03-02T07:26:59.413Z,34.63
2019-03-02T07:29:29.374Z,36.15
2019-03-02T07:31:59.573Z,33.13
2019-03-02T07:34:29.357Z,35.78
2019-03-02T07:36:59.058Z,34.10
2019-03-02T07:39:32.811Z,32.53
2019-03-02T07:42:00.514Z,32.28
2019-03-02T07:44:30.378Z,31.97
2019-03-02T07:47:00.188Z,34.70
2019-03-02T07:49:30.015Z,32.15
2019-03-02T07:52:00.014Z,30.77
2019-03-02T07:54:29.679Z,33.28
2019-03-02T07:56:59.418Z,31.60
2019-03-02T07:59:29.604Z,31.42
2019-03-02T08:02:00.282Z,32.55
2019-03-02T08:04:30.396Z,30.45
2019-03-02T08:07:01.443Z,31.82
2019-03-02T08:09:31.490Z,35.10
2019-03-02T08:12:01.281Z,32.48
2019-03-02T08:14:31.075Z,30.70
2019-03-02T08:17:01.194Z,31.90
2019-03-02T08:19:30.924Z,31.15
2019-03-02T08:22:00.747Z,30.72
2019-03-02T08:24:30.513Z,31.97
2019-03-02T08:27:00.660Z,33.73
2019-03-02T08:29:30.456Z,32.25
2019-03-02T08:32:00.160Z,33.15
2019-03-02T08:34:30.135Z,30.77
2019-03-02T08:37:00.024Z,31.48
2019-03-02T08:39:29.593Z,32.65
2019-03-02T08:41:59.538Z,32.25
2019-03-02T08:44:29.653Z,34.67
2019-03-02T08:46:59.292Z,33.40
2019-03-02T08:49:29.175Z,34.55
2019-03-02T08:51:58.650Z,34.92
2019-03-02T08:54:28.577Z,38.48
2019-03-02T08:56:58.271Z,37.78
2019-03-02T08:59:27.973Z,38.75
2019-03-02T09:01:58.040Z,38.92
2019-03-02T09:04:27.756Z,41.23
2019-03-02T09:06:57.611Z,40.20
2019-03-02T09:09:27.320Z,42.67
2019-03-02T09:11:57.035Z,42.33
2019-03-02T09:14:26.947Z,44.95
2019-03-02T09:16:58.581Z,46.58
2019-03-02T09:19:28.510Z,48.87
2019-03-02T09:21:58.243Z,47.88
2019-03-02T09:24:28.095Z,47.03
2019-03-02T09:26:57.942Z,48.78
2019-03-02T09:29:27.670Z,44.98
2019-03-02T09:31:57.617Z,46.33
2019-03-02T09:34:27.532Z,48.02
2019-03-02T09:36:57.493Z,44.83
2019-03-02T09:39:27.200Z,45.70
2019-03-02T09:41:58.136Z,46.37
2019-03-02T09:44:28.102Z,46.92
2019-03-02T09:46:57.870Z,42.88
2019-03-02T09:49:27.511Z,47.40
2019-03-02T09:51:57.388Z,42.08
2019-03-02T09:54:27.015Z,41.28
2019-03-02T09:56:56.814Z,38.00
2019-03-02T09:59:26.533Z,41.10
2019-03-02T10:01:56.522Z,37.50
2019-03-02T10:04:26.024Z,39.33
2019-03-02T10:06:57.998Z,40.28
2019-03-02T10:09:27.013Z,41.02
2019-03-02T10:11:57.015Z,38.40
2019-03-02T10:14:27.618Z,38.25
2019-03-02T10:16:57.251Z,40.10
2019-03-02T10:19:28.861Z,37.58
2019-03-02T10:21:59.056Z,38.25
2019-03-02T10:24:28.808Z,36.98
2019-03-02T10:26:58.575Z,36.25
2019-03-02T10:29:28.338Z,35.92
2019-03-02T10:31:58.245Z,38.00
2019-03-02T10:34:27.852Z,35.70
2019-03-02T10:36:57.733Z,32.55
2019-03-02T10:39:29.164Z,33.13
2019-03-02T10:42:00.542Z,31.97
2019-03-02T10:44:30.493Z,35.90
2019-03-02T10:47:00.373Z,34.85
2019-03-02T10:49:29.684Z,36.42
2019-03-02T10:51:59.350Z,35.80
2019-03-02T10:54:31.648Z,36.30
2019-03-02T10:57:01.010Z,34.92
2019-03-02T10:59:30.494Z,29.00
2019-03-02T11:02:00.167Z,36.15
2019-03-02T11:04:52.300Z,32.83
2019-03-02T11:07:39.834Z,36.80
2019-03-02T11:10:18.251Z,36.50
2019-03-02T11:13:15.985Z,35.65
2019-03-02T11:16:00.157Z,30.12
2019-03-02T11:18:40.713Z,30.95
2019-03-02T11:21:34.735Z,30.25
2019-03-02T11:24:30.819Z,29.77
2019-03-02T11:27:21.736Z,29.82
2019-03-02T11:30:09.065Z,30.75
2019-03-02T11:32:57.016Z,28.87
2019-03-02T11:36:04.063Z,29.75
2019-03-02T11:39:02.138Z,28.27
2019-03-02T11:41:51.097Z,29.95
2019-03-02T11:44:39.956Z,27.10
2019-03-02T11:47:27.276Z,25.97
2019-03-02T11:50:04.570Z,27.67
2019-03-02T11:52:57.001Z,25.57
2019-03-02T11:55:45.552Z,25.02
2019-03-02T11:58:35.213Z,24.47
2019-03-02T12:01:29.964Z,23.00
2019-03-02T12:04:16.333Z,22.77
2019-03-02T12:07:22.933Z,21.82
2019-03-02T12:10:14.724Z,22.65
2019-03-02T12:13:05.592Z,23.15
2019-03-02T12:15:45.941Z,20.02
2019-03-02T12:18:26.532Z,20.57
2019-03-02T12:21:17.909Z,21.55
2019-03-02T12:24:14.740Z,21.05
2019-03-02T12:26:56.808Z,21.80
2019-03-02T12:29:49.727Z,20.57
2019-03-02T12:32:40.294Z,18.85
2019-03-02T12:35:27.577Z,20.90
2019-03-02T12:38:22.268Z,19.45
2019-03-02T12:41:01.089Z,20.60
2019-03-02T12:43:58.973Z,19.17
2019-03-02T12:46:47.960Z,17.43
2019-03-02T12:49:44.012Z,19.67
2019-03-02T12:52:23.414Z,20.00
2019-03-02T12:55:06.092Z,18.43
2019-03-02T12:58:01.298Z,18.27
2019-03-02T13:00:56.503Z,18.03
2019-03-02T13:03:41.984Z,17.80
2019-03-02T13:06:20.399Z,18.37
2019-03-02T13:09:17.831Z,16.87
2019-03-02T13:12:02.012Z,17.20
2019-03-02T13:14:53.623Z,18.67
2019-03-02T13:17:37.275Z,16.97
2019-03-02T13:20:15.378Z,17.07
2019-03-02T13:23:15.892Z,15.83
2019-03-02T13:26:07.429Z,13.90
2019-03-02T13:28:41.724Z,14.03
2019-03-02T13:31:43.796Z,16.20
2019-03-02T13:34:21.904Z,13.63
2019-03-02T13:37:03.897Z,15.50
2019-03-02T13:39:39.440Z,16.90
2019-03-02T13:42:24.549Z,14.70
2019-03-02T13:45:19.331Z,15.97
2019-03-02T13:48:00.493Z,15.20
2019-03-02T13:50:40.870Z,15.17
2019-03-02T13:53:28.365Z,16.77
2019-03-02T13:56:09.748Z,14.60
2019-03-02T13:59:01.370Z,14.87
2019-03-02T14:02:08.456Z,15.93
2019-03-02T14:05:04.835Z,15.87
2019-03-02T14:07:53.470Z,14.67
2019-03-02T14:10:42.189Z,16.23
2019-03-02T14:13:46.002Z,16.70
2019-03-02T14:16:35.309Z,15.83
2019-03-02T14:19:24.129Z,16.90
2019-03-02T14:22:05.513Z,13.90
2019-03-02T14:24:53.858Z,16.80
2019-03-02T14:27:41.483Z,15.90
2019-03-02T14:30:21.319Z,17.17
2019-03-02T14:33:15.130Z,15.90
2019-03-02T14:36:09.998Z,16.00
2019-03-02T14:39:01.273Z,17.90
2019-03-02T14:41:55.085Z,18.97
2019-03-02T14:44:41.529Z,16.47
2019-03-02T14:47:36.446Z,18.33
2019-03-02T14:50:12.137Z,17.00
2019-03-02T14:52:58.534Z,17.20
2019-03-02T14:55:53.021Z,16.10
2019-03-02T14:58:44.440Z,14.73
2019-03-02T15:01:36.121Z,15.80
2019-03-02T15:04:16.933Z,18.03
2019-03-02T15:07:04.765Z,16.23
2019-03-02T15:09:49.692Z,14.58
2019-03-02T15:12:36.249Z,16.12
2019-03-02T15:15:36.138Z,15.40
2019-03-02T15:18:37.088Z,13.17
2019-03-02T15:21:27.520Z,13.93
2019-03-02T15:24:16.311Z,14.70
2019-03-02T15:27:04.176Z,12.50
2019-03-02T15:29:51.709Z,19.17
2019-03-02T15:32:41.172Z,16.93
2019-03-02T15:35:44.874Z,19.83
2019-03-02T15:38:29.454Z,15.95
2019-03-02T15:41:18.190Z,13.10
2019-03-02T15:43:59.655Z,13.43
2019-03-02T15:46:55.495Z,12.07
2019-03-02T15:49:41.603Z,11.03
2019-03-02T15:52:20.099Z,13.35
2019-03-02T15:55:17.056Z,10.35
2019-03-02T15:58:10.718Z,10.05
2019-03-02T16:00:56.218Z,7.37
2019-03-02T16:03:44.851Z,10.90
2019-03-02T16:06:23.298Z,8.40
2019-03-02T16:09:04.743Z,8.10
2019-03-02T16:11:56.673Z,8.73
2019-03-02T16:14:36.211Z,10.30
2019-03-02T16:17:29.264Z,7.65
2019-03-02T16:20:18.025Z,10.48
2019-03-02T16:23:11.588Z,7.85
2019-03-02T16:26:03.254Z,15.93
2019-03-02T16:28:38.919Z,15.03
2019-03-02T16:31:16.815Z,10.10
2019-03-02T16:33:58.626Z,13.10
2019-03-02T16:36:41.509Z,9.48
2019-03-02T16:39:29.163Z,13.32
2019-03-02T16:42:35.948Z,14.53
2019-03-02T16:45:38.144Z,16.90
2019-03-02T16:48:18.545Z,14.33
2019-03-02T16:51:17.224Z,15.95
2019-03-02T16:54:09.904Z,15.58
2019-03-02T16:56:48.731Z,19.32
2019-03-02T16:59:46.527Z,23.42
2019-03-02T17:02:38.458Z,23.75
2019-03-02T17:05:31.869Z,24.72
2019-03-02T17:08:25.487Z,32.63
2019-03-02T17:11:06.767Z,32.13
2019-03-02T17:13:53.653Z,30.15
2019-03-02T17:16:54.879Z,36.88
2019-03-02T17:19:45.165Z,33.30
2019-03-02T17:22:32.407Z,30.82
2019-03-02T17:25:21.883Z,29.48
2019-03-02T17:28:31.588Z,35.98
2019-03-02T17:31:20.313Z,37.55
2019-03-02T17:34:16.567Z,29.15
2019-03-02T17:37:20.658Z,34.75
2019-03-02T17:40:26.540Z,34.65
2019-03-02T17:43:32.912Z,27.22
2019-03-02T17:46:18.490Z,31.23
2019-03-02T17:49:13.566Z,31.40
2019-03-02T17:52:09.358Z,31.35
2019-03-02T17:54:51.221Z,30.70
2019-03-02T17:57:42.369Z,34.88
2019-03-02T18:00:23.260Z,32.73
2019-03-02T18:03:30.044Z,32.00
2019-03-02T18:06:20.469Z,30.57
2019-03-02T18:08:55.407Z,28.07
2019-03-02T18:11:50.326Z,29.52
2019-03-02T18:14:32.186Z,28.38
2019-03-02T18:17:19.922Z,22.75
2019-03-02T18:19:49.991Z,21.25
2019-03-02T18:22:20.147Z,19.32
2019-03-02T18:24:50.664Z,17.82
2019-03-02T18:27:20.808Z,18.80
2019-03-02T18:29:50.720Z,18.87
2019-03-02T18:32:21.015Z,18.80
2019-03-02T18:34:50.953Z,18.77
2019-03-02T18:37:21.291Z,20.52
2019-03-02T18:39:51.965Z,22.87
2019-03-02T18:42:27.095Z,24.15
2019-03-02T18:45:02.485Z,25.68
2019-03-02T18:47:33.270Z,26.87
2019-03-02T18:50:12.771Z,31.20
2019-03-02T18:52:48.260Z,30.90
2019-03-02T18:55:22.401Z,29.48
2019-03-02T18:57:52.158Z,33.20
2019-03-02T19:02:26.523Z,37.55
2019-03-02T19:03:24.876Z,35.80
2019-03-02T19:05:55.912Z,38.53
2019-03-02T19:08:26.050Z,36.93
2019-03-02T19:10:59.109Z,36.90
2019-03-02T19:13:29.111Z,39.80
2019-03-02T19:15:59.846Z,37.73
2019-03-02T19:18:30.371Z,36.00
2019-03-02T19:21:00.368Z,39.10
2019-03-02T19:23:40.891Z,40.55
2019-03-02T19:26:12.610Z,39.98
2019-03-02T19:28:43.138Z,38.65
2019-03-02T19:31:14.662Z,39.65
2019-03-02T19:33:46.602Z,30.23
2019-03-02T19:36:18.155Z,38.50
2019-03-02T19:38:49.455Z,38.50
2019-03-02T19:41:19.828Z,30.10
2019-03-02T19:43:49.999Z,37.88
2019-03-02T19:46:20.186Z,36.33
2019-03-02T19:48:50.286Z,37.40
2019-03-02T19:51:19.947Z,35.60
2019-03-02T19:56:31.672Z,35.05
2019-03-02T19:59:01.168Z,37.17
2019-03-02T20:01:34.888Z,30.75
2019-03-02T20:06:51.785Z,33.98
2019-03-02T20:08:24.867Z,28.32
2019-03-02T20:09:22.069Z,33.30
2019-03-02T20:11:52.283Z,29.90
2019-03-02T20:14:22.688Z,27.85
2019-03-02T20:16:57.538Z,28.70
2019-03-02T20:19:35.563Z,25.10
2019-03-02T20:22:05.941Z,26.95
2019-03-02T20:24:39.017Z,24.18
2019-03-02T20:27:12.855Z,24.37
2019-03-02T20:29:43.350Z,22.82
2019-03-02T20:32:15.084Z,23.87
2019-03-02T20:34:45.492Z,24.75
2019-03-02T20:37:17.475Z,26.73
2019-03-02T20:39:48.164Z,26.80
2019-03-02T20:42:18.376Z,24.57
2019-03-02T20:44:48.511Z,22.90
2019-03-02T20:47:20.660Z,21.35
2019-03-02T20:49:51.134Z,16.42
2019-03-02T20:52:21.606Z,13.48
2019-03-02T20:54:52.280Z,15.03
2019-03-02T20:57:22.325Z,20.77
2019-03-02T20:59:53.178Z,8.60
2019-03-02T21:02:23.477Z,15.85
2019-03-02T21:04:57.129Z,11.10
2019-03-02T21:07:29.648Z,9.78
2019-03-02T21:09:59.524Z,6.90
2019-03-02T21:12:29.873Z,6.60
2019-03-02T21:14:59.787Z,8.73
2019-03-02T21:17:30.015Z,7.95
2019-03-02T21:20:00.740Z,7.58
2019-03-02T21:22:30.888Z,5.65
2019-03-02T21:25:00.904Z,6.53
2019-03-02T21:27:31.322Z,7.20
2019-03-02T21:30:01.476Z,5.87
2019-03-02T21:32:32.056Z,5.30
2019-03-02T21:35:03.601Z,6.15
2019-03-02T21:37:34.030Z,4.70
2019-03-02T21:40:05.066Z,4.95
2019-03-02T21:42:35.423Z,4.60
2019-03-02T21:45:06.181Z,4.40
2019-03-02T21:47:36.636Z,3.62
2019-03-02T21:50:12.593Z,4.37
2019-03-02T21:52:51.849Z,5.40
2019-03-02T21:55:22.874Z,4.83
2019-03-02T21:57:53.045Z,5.03
2019-03-02T22:00:25.001Z,4.15
2019-03-02T22:03:01.009Z,4.65
2019-03-02T22:05:34.314Z,4.65
2019-03-02T22:08:04.451Z,4.05
2019-03-02T22:10:44.169Z,4.25
2019-03-02T22:13:14.571Z,3.58
2019-03-02T22:15:44.889Z,3.05
2019-03-02T22:18:15.559Z,3.35
2019-03-02T22:20:45.736Z,2.85
2019-03-02T22:23:28.399Z,2.70
2019-03-02T22:26:09.370Z,2.90
2019-03-02T22:28:39.704Z,2.90
2019-03-02T22:31:10.302Z,3.35
2019-03-02T22:33:40.579Z,2.85
2019-03-02T22:36:11.179Z,3.60
2019-03-02T22:38:42.723Z,3.90
2019-03-02T22:41:14.354Z,3.33
2019-03-02T22:43:45.074Z,3.65
2019-03-02T22:46:15.028Z,4.65
2019-03-02T22:48:45.365Z,4.60
2019-03-02T22:51:18.979Z,4.45
2019-03-02T22:53:51.717Z,4.10
2019-03-02T22:56:22.112Z,4.45
2019-03-02T23:02:07.849Z,5.40
2019-03-02T23:04:38.005Z,5.03
2019-03-02T23:07:08.540Z,4.70
2019-03-02T23:09:38.696Z,4.45
2019-03-02T23:12:18.791Z,4.25
2019-03-02T23:14:50.608Z,4.95
2019-03-02T23:17:20.655Z,5.80
2019-03-02T23:19:51.023Z,4.75
2019-03-02T23:22:27.135Z,5.55
2019-03-02T23:24:57.118Z,5.10
2019-03-02T23:27:27.575Z,5.62
2019-03-02T23:30:07.802Z,4.50
2019-03-02T23:32:40.847Z,4.40
2019-03-02T23:35:11.524Z,5.33
2019-03-02T23:37:42.001Z,5.72
2019-03-02T23:40:12.637Z,5.20
2019-03-02T23:42:43.519Z,6.05
2019-03-02T23:45:17.171Z,6.40
2019-03-02T23:47:56.952Z,6.78
2019-03-02T23:50:48.677Z,6.22
2019-03-02T23:53:29.344Z,6.37
2019-03-02T23:56:01.037Z,6.92
2019-03-02T23:58:37.336Z,4.72
